Uni-arise — 3FSV7 — position and weather

sailwx.info

Track history (hours):
 
Tides and Currents Weather Stations Pressure Air Temp Water Temp Dewpoint Dewpoint Depression Visibility Wind Speed Wind Dir Waves Ship Positions

Uni-arise

Last reported at 2017-Feb-18 18:32 UTC. Time now 2017-Feb-19 18:40 UTC.
Position N 22°53' E 119°58'.

Length 165 m; draft 7.9 m.

Type: Ship (hazmat cat D). MMSI: 351608000.

Date/timePositionNaut miles runAvg speedWind from/ knotsBaromVisibWave heightAir tempDewpointWater temp
2017-Feb-18 18:32N 22°53' E 119°58'1414.8
2017-Feb-18 17:33N 22°40' E 120°05'1313.2
2017-Feb-18 16:33N 22°33' E 120°16'3 3.0
2017-Feb-18 15:31N 22°33' E 120°20'0 0.0
2017-Feb-18 14:31N 22°33' E 120°20'0 0.1
2017-Feb-18 13:31N 22°33' E 120°20'0 0.1
2017-Feb-18 12:31N 22°33' E 120°20'0 0.1
2017-Feb-18 11:31N 22°33' E 120°20'0 0.1
2017-Feb-18 10:28N 22°33' E 120°20'0 0.1
2017-Feb-18 09:31N 22°33' E 120°20'0 0.0
2017-Feb-18 08:31N 22°33' E 120°20'0 0.1
2017-Feb-18 07:28N 22°33' E 120°20'0 0.0
2017-Feb-18 06:31N 22°33' E 120°20'0 0.0
2017-Feb-18 05:31N 22°33' E 120°20'0 0.0
2017-Feb-18 04:31N 22°33' E 120°20'0 0.0
2017-Feb-18 03:31N 22°33' E 120°20'0 0.0
2017-Feb-18 02:31N 22°33' E 120°20'0 0.1
2017-Feb-18 01:31N 22°33' E 120°20'0 0.0
2017-Feb-18 00:28N 22°33' E 120°20'0 0.1
2017-Feb-17 23:31N 22°33' E 120°20'0 0.0
2017-Feb-17 22:31N 22°33' E 120°20'0 0.0
2017-Feb-17 21:31N 22°33' E 120°20'0 0.0
2017-Feb-17 20:31N 22°33' E 120°20'0 0.0
2017-Feb-17 19:31N 22°33' E 120°20'0 0.0
2017-Feb-17 18:31N 22°33' E 120°20'0 0.0
2017-Feb-17 17:31N 22°33' E 120°20'0 0.0
2017-Feb-17 15:25N 22°33' E 120°20'3 3.4
2017-Feb-17 14:33N 22°32' E 120°17'1 1.4
2017-Feb-17 13:31N 22°31' E 120°17'0 0.1
2017-Feb-17 12:31N 22°31' E 120°17'0 0.1
2017-Feb-17 11:31N 22°31' E 120°17'0 0.0
2017-Feb-17 10:31N 22°31' E 120°17'0 0.0
2017-Feb-17 09:31N 22°31' E 120°17'0 0.0
2017-Feb-17 08:33N 22°31' E 120°17'8 8.4
2017-Feb-17 07:33N 22°32' E 120°08'  
2017-Feb-09 15:24N 33°59' E 134°57'1315.0
2017-Feb-09 14:33N 34°11' E 134°57'1514.7
2017-Feb-09 13:33N 34°25' E 135°04'1515.5
2017-Feb-09 12:33N 34°37' E 135°16'4 3.5
2017-Feb-09 11:32N 34°40' E 135°14'0 0.0
2017-Feb-09 10:32N 34°40' E 135°14'0 0.0
2017-Feb-09 09:32N 34°40' E 135°14'0 0.0
2017-Feb-09 08:32N 34°40' E 135°14'0 0.0
2017-Feb-09 07:32N 34°40' E 135°14'0 0.0
2017-Feb-09 06:32N 34°40' E 135°14'0 0.3
2017-Feb-09 05:32N 34°40' E 135°14'0 0.0
2017-Feb-09 04:32N 34°40' E 135°14'0 0.0
2017-Feb-09 03:26N 34°40' E 135°14'0 0.0
2017-Feb-09 02:32N 34°40' E 135°14'0 0.0
2017-Feb-09 01:32N 34°40' E 135°14'0 0.0
2017-Feb-09 00:19N 34°40' E 135°14'0 0.0
2017-Feb-08 23:25N 34°40' E 135°14'0 0.0
2017-Feb-08 22:31N 34°40' E 135°14'0 0.0
2017-Feb-08 21:25N 34°40' E 135°14'0 0.0
2017-Feb-08 20:31N 34°40' E 135°14'0 0.0
2017-Feb-08 19:25N 34°40' E 135°14'  
Track history (hours):
 
Tides and Currents Weather Stations Pressure Air Temp Water Temp Dewpoint Dewpoint Depression Visibility Wind Speed Wind Dir Waves Ship Positions

Uni-arise

Last reported at 2017-Feb-18 18:32 UTC. Time now 2017-Feb-19 18:40 UTC.
Position N 22°53' E 119°58'.

Length 165 m; draft 7.9 m.

Type: Ship (hazmat cat D). MMSI: 351608000.

Date/timePositionNaut miles runAvg speedWind from/ knotsBaromVisibWave heightAir tempDewpointWater temp
2017-Feb-18 18:32N 22°53' E 119°58'1414.8
2017-Feb-18 17:33N 22°40' E 120°05'1313.2
2017-Feb-18 16:33N 22°33' E 120°16'3 3.0
2017-Feb-18 15:31N 22°33' E 120°20'0 0.0
2017-Feb-18 14:31N 22°33' E 120°20'0 0.1
2017-Feb-18 13:31N 22°33' E 120°20'0 0.1
2017-Feb-18 12:31N 22°33' E 120°20'0 0.1
2017-Feb-18 11:31N 22°33' E 120°20'0 0.1
2017-Feb-18 10:28N 22°33' E 120°20'0 0.1
2017-Feb-18 09:31N 22°33' E 120°20'0 0.0
2017-Feb-18 08:31N 22°33' E 120°20'0 0.1
2017-Feb-18 07:28N 22°33' E 120°20'0 0.0
2017-Feb-18 06:31N 22°33' E 120°20'0 0.0
2017-Feb-18 05:31N 22°33' E 120°20'0 0.0
2017-Feb-18 04:31N 22°33' E 120°20'0 0.0
2017-Feb-18 03:31N 22°33' E 120°20'0 0.0
2017-Feb-18 02:31N 22°33' E 120°20'0 0.1
2017-Feb-18 01:31N 22°33' E 120°20'0 0.0
2017-Feb-18 00:28N 22°33' E 120°20'0 0.1
2017-Feb-17 23:31N 22°33' E 120°20'0 0.0
2017-Feb-17 22:31N 22°33' E 120°20'0 0.0
2017-Feb-17 21:31N 22°33' E 120°20'0 0.0
2017-Feb-17 20:31N 22°33' E 120°20'0 0.0
2017-Feb-17 19:31N 22°33' E 120°20'0 0.0
2017-Feb-17 18:31N 22°33' E 120°20'0 0.0
2017-Feb-17 17:31N 22°33' E 120°20'0 0.0
2017-Feb-17 15:25N 22°33' E 120°20'3 3.4
2017-Feb-17 14:33N 22°32' E 120°17'1 1.4
2017-Feb-17 13:31N 22°31' E 120°17'0 0.1
2017-Feb-17 12:31N 22°31' E 120°17'0 0.1
2017-Feb-17 11:31N 22°31' E 120°17'0 0.0
2017-Feb-17 10:31N 22°31' E 120°17'0 0.0
2017-Feb-17 09:31N 22°31' E 120°17'0 0.0
2017-Feb-17 08:33N 22°31' E 120°17'8 8.4
2017-Feb-17 07:33N 22°32' E 120°08'  
2017-Feb-09 15:24N 33°59' E 134°57'1315.0
2017-Feb-09 14:33N 34°11' E 134°57'1514.7
2017-Feb-09 13:33N 34°25' E 135°04'1515.5
2017-Feb-09 12:33N 34°37' E 135°16'4 3.5
2017-Feb-09 11:32N 34°40' E 135°14'0 0.0
2017-Feb-09 10:32N 34°40' E 135°14'0 0.0
2017-Feb-09 09:32N 34°40' E 135°14'0 0.0
2017-Feb-09 08:32N 34°40' E 135°14'0 0.0
2017-Feb-09 07:32N 34°40' E 135°14'0 0.0
2017-Feb-09 06:32N 34°40' E 135°14'0 0.3
2017-Feb-09 05:32N 34°40' E 135°14'0 0.0
2017-Feb-09 04:32N 34°40' E 135°14'0 0.0
2017-Feb-09 03:26N 34°40' E 135°14'0 0.0
2017-Feb-09 02:32N 34°40' E 135°14'0 0.0
2017-Feb-09 01:32N 34°40' E 135°14'0 0.0
2017-Feb-09 00:19N 34°40' E 135°14'0 0.0
2017-Feb-08 23:25N 34°40' E 135°14'0 0.0
2017-Feb-08 22:31N 34°40' E 135°14'0 0.0
2017-Feb-08 21:25N 34°40' E 135°14'0 0.0
2017-Feb-08 20:31N 34°40' E 135°14'0 0.0
2017-Feb-08 19:25N 34°40' E 135°14'  

Dump ship's entire track history